Time;durP1;ratioP1;P1;durP2;ratioP2;P2;SDS_P1;SDS_P2;PMS_P1;PMS_P2;Temp;Humidity;BMP_temperature;BMP_pressure;BME280_temperature;BME280_humidity;BME280_pressure;Samples;Min_cycle;Max_cycle;Signal;HPM_P1;HPM_P2
2021/07/23 00:00:19;;;;;;;;;;;;;;;11.86;100.00;99346.16;1681437;85;20144;-68
2021/07/23 00:02:45;;;;;;;;;;;;;;;11.87;100.00;99347.25;1681677;85;20116;-67
2021/07/23 00:05:13;;;;;;;;;;;;;;;11.86;100.00;99350.19;1681813;85;21202;-67
2021/07/23 00:07:39;;;;;;;;;;;;;;;11.83;100.00;99353.39;1681463;85;20700;-67
2021/07/23 00:10:30;;;;;;;;;;;;;;;11.82;100.00;99352.59;1681502;85;20127;-67
2021/07/23 00:12:57;;;;;;;;;;;;;;;11.80;100.00;99352.84;1636172;87;20410;-66
2021/07/23 00:15:25;;;;;;;;;;;;;;;11.86;100.00;99353.69;1636102;86;20106;-67
2021/07/23 00:17:52;;;;;;;;;;;;;;;11.81;100.00;99353.67;1636179;87;21238;-67
2021/07/23 00:20:19;;;;;;;;;;;;;;;11.78;100.00;99348.81;1635948;87;20149;-68
2021/07/23 00:22:46;;;;;;;;;;;;;;;11.79;100.00;99349.90;1636152;87;20090;-67
2021/07/23 00:25:13;;;;;;;;;;;;;;;11.86;100.00;99354.22;1635929;87;20146;-67
2021/07/23 00:27:39;;;;;;;;;;;;;;;11.85;100.00;99344.52;1636248;87;20465;-67
2021/07/23 00:30:08;;;;;;;;;;;;;;;11.78;100.00;99346.95;1636087;86;21178;-68
2021/07/23 00:32:36;;;;;;;;;;;;;;;11.62;100.00;99341.27;1636068;86;20418;-67
2021/07/23 00:35:03;;;;;;;;;;;;;;;11.57;100.00;99346.63;1636445;87;20090;-68
2021/07/23 00:37:31;;;;;;;;;;;;;;;11.52;100.00;99342.59;1636004;87;20098;-67
2021/07/23 00:39:58;;;;;;;;;;;;;;;11.46;100.00;99340.94;1636283;87;20240;-67
2021/07/23 00:42:40;;;;;;;;;;;;;;;11.41;100.00;99340.39;1614667;87;21315;-68
2021/07/23 00:45:08;;;;;;;;;;;;;;;11.34;100.00;99343.34;1636183;87;20085;-67
2021/07/23 00:47:36;;;;;;;;;;;;;;;11.27;100.00;99345.98;1636299;87;20437;-67
2021/07/23 00:50:05;;;;;;;;;;;;;;;11.28;100.00;99345.73;1663408;85;20155;-67
2021/07/23 00:52:33;;;;;;;;;;;;;;;11.29;100.00;99349.22;1697655;84;20450;-67
2021/07/23 00:55:01;;;;;;;;;;;;;;;11.18;100.00;99347.04;1692148;85;21150;-67
2021/07/23 00:57:28;;;;;;;;;;;;;;;11.07;100.00;99349.39;1692059;83;20469;-67
2021/07/23 00:59:54;;;;;;;;;;;;;;;10.98;100.00;99349.64;1692108;84;20201;-67
2021/07/23 01:02:21;;;;;;;;;;;;;;;10.92;100.00;99349.59;1692163;85;20150;-67
2021/07/23 01:04:49;;;;;;;;;;;;;;;10.96;100.00;99343.72;1692183;83;20467;-67
2021/07/23 01:07:16;;;;;;;;;;;;;;;11.06;100.00;99346.45;1692102;85;21218;-67
2021/07/23 01:09:43;;;;;;;;;;;;;;;11.13;100.00;99343.80;1692108;83;20111;-67
2021/07/23 01:12:13;;;;;;;;;;;;;;;11.18;100.00;99344.89;1716052;83;20107;-68
2021/07/23 01:14:42;;;;;;;;;;;;;;;11.18;100.00;99344.35;1729745;83;20098;-67
2021/07/23 01:17:12;;;;;;;;;;;;;;;11.17;100.00;99344.09;1729719;83;20174;-67
2021/07/23 01:19:42;;;;;;;;;;;;;;;11.12;100.00;99343.53;1729647;83;21149;-67
2021/07/23 01:22:09;;;;;;;;;;;;;;;11.09;100.00;99348.60;1729605;83;20082;-67
2021/07/23 01:24:37;;;;;;;;;;;;;;;11.07;100.00;99346.70;1729693;83;20220;-68
2021/07/23 01:27:05;;;;;;;;;;;;;;;11.08;100.00;99351.03;1729591;83;20131;-67
2021/07/23 01:29:46;;;;;;;;;;;;;;;11.14;100.00;99353.99;1726858;83;20142;-66
2021/07/23 01:32:13;;;;;;;;;;;;;;;11.25;100.00;99352.98;1729744;83;21145;-67
2021/07/23 01:34:40;;;;;;;;;;;;;;;11.26;100.00;99351.09;1729619;83;20142;-67
2021/07/23 01:37:07;;;;;;;;;;;;;;;11.17;100.00;99345.44;1730084;83;20425;-67
2021/07/23 01:39:34;;;;;;;;;;;;;;;11.13;100.00;99352.39;1729669;83;20098;-67
2021/07/23 01:42:01;;;;;;;;;;;;;;;11.13;100.00;99350.51;1701719;83;20114;-67
2021/07/23 01:44:30;;;;;;;;;;;;;;;11.18;100.00;99350.27;1729800;83;21075;-67
2021/07/23 01:46:57;;;;;;;;;;;;;;;11.17;100.00;99350.81;1701297;83;20177;-66
2021/07/23 01:49:25;;;;;;;;;;;;;;;11.14;100.00;99353.45;1729892;83;20409;-67
2021/07/23 01:51:52;;;;;;;;;;;;;;;11.18;100.00;99349.72;1729560;83;20078;-67
2021/07/23 01:54:21;;;;;;;;;;;;;;;11.18;100.00;99355.09;1725471;82;20138;-67
2021/07/23 01:56:48;;;;;;;;;;;;;;;11.10;100.00;99351.58;1729594;83;21109;-67
2021/07/23 01:59:16;;;;;;;;;;;;;;;11.10;100.00;99350.23;1729494;83;20098;-67
2021/07/23 02:01:43;;;;;;;;;;;;;;;11.06;100.00;99351.82;1729832;83;20417;-67
2021/07/23 02:04:18;;;;;;;;;;;;;;;11.02;100.00;99352.06;1728798;83;20125;-67
2021/07/23 02:06:46;;;;;;;;;;;;;;;11.05;100.00;99347.50;1729820;83;20083;-67
2021/07/23 02:09:13;;;;;;;;;;;;;;;10.98;100.00;99345.62;1729827;83;21208;-67
2021/07/23 02:11:43;;;;;;;;;;;;;;;10.91;100.00;99341.27;1728580;83;20417;-67
2021/07/23 02:14:11;;;;;;;;;;;;;;;10.86;100.00;99350.65;1729596;83;20106;-67
2021/07/23 02:16:39;;;;;;;;;;;;;;;10.86;100.00;99349.30;1729783;83;20455;-66
2021/07/23 02:19:09;;;;;;;;;;;;;;;10.87;100.00;99346.88;1729591;83;20472;-67
2021/07/23 02:21:37;;;;;;;;;;;;;;;10.86;100.00;99340.45;1727844;83;21177;-66
2021/07/23 02:24:05;;;;;;;;;;;;;;;10.82;100.00;99344.71;1729615;83;20087;-67
2021/07/23 02:26:31;;;;;;;;;;;;;;;10.83;100.00;99343.13;1729600;83;20470;-67
2021/07/23 02:28:58;;;;;;;;;;;;;;;10.83;100.00;99347.15;1729599;83;20126;-66
2021/07/23 02:31:25;;;;;;;;;;;;;;;10.78;100.00;99347.63;1729828;82;20134;-67
2021/07/23 02:33:56;;;;;;;;;;;;;;;10.85;100.00;99342.33;1701281;83;21176;-66
2021/07/23 02:36:27;;;;;;;;;;;;;;;10.84;100.00;99349.30;1729333;83;20189;-66
2021/07/23 02:38:55;;;;;;;;;;;;;;;10.77;100.00;99348.17;1729587;83;20083;-66
2021/07/23 02:41:22;;;;;;;;;;;;;;;10.69;100.00;99341.42;1729959;81;20102;-66
2021/07/23 02:43:50;;;;;;;;;;;;;;;10.65;100.00;99345.68;1701138;83;20075;-67
2021/07/23 02:46:17;;;;;;;;;;;;;;;10.61;100.00;99341.92;1729635;83;21160;-66
2021/07/23 02:48:45;;;;;;;;;;;;;;;10.61;100.00;99338.44;1729744;83;20430;-67
2021/07/23 02:51:11;;;;;;;;;;;;;;;10.67;100.00;99345.44;1729559;83;20126;-67
2021/07/23 02:53:39;;;;;;;;;;;;;;;10.75;100.00;99335.53;1729777;83;20435;-67
2021/07/23 02:56:07;;;;;;;;;;;;;;;10.83;100.00;99340.44;1729535;81;20074;-67
2021/07/23 02:58:40;;;;;;;;;;;;;;;10.87;100.00;99336.14;1729671;81;21167;-67
2021/07/23 03:01:08;;;;;;;;;;;;;;;10.89;100.00;99342.06;1729886;83;20145;-67
2021/07/23 03:03:36;;;;;;;;;;;;;;;10.92;100.00;99338.84;1701372;83;32409;-65
2021/07/23 03:06:03;;;;;;;;;;;;;;;10.97;100.00;99338.07;1729658;82;20129;-65
2021/07/23 03:08:31;;;;;;;;;;;;;;;11.02;100.00;99344.80;1729742;83;20480;-66
2021/07/23 03:10:58;;;;;;;;;;;;;;;11.06;100.00;99347.25;1729568;83;21054;-66
2021/07/23 03:13:30;;;;;;;;;;;;;;;11.11;100.00;99342.44;1701972;82;20074;-66
2021/07/23 03:15:57;;;;;;;;;;;;;;;11.19;100.00;99339.78;1734966;82;20157;-67
2021/07/23 03:18:24;;;;;;;;;;;;;;;11.30;100.00;99345.48;1734995;82;20487;-67
2021/07/23 03:20:51;;;;;;;;;;;;;;;11.41;100.00;99340.93;1735047;82;20126;-68
2021/07/23 03:23:18;;;;;;;;;;;;;;;11.56;100.00;99347.17;1734842;81;21576;-67
2021/07/23 03:25:46;;;;;;;;;;;;;;;11.73;100.00;99344.77;1734974;82;20098;-67
2021/07/23 03:28:15;;;;;;;;;;;;;;;11.84;100.00;99349.10;1733113;82;20126;-67
2021/07/23 03:30:43;;;;;;;;;;;;;;;11.96;100.00;99351.03;1733886;81;20458;-68
2021/07/23 03:33:10;;;;;;;;;;;;;;;12.09;100.00;99355.06;1735153;81;20122;-67
2021/07/23 03:35:37;;;;;;;;;;;;;;;12.24;100.00;99355.61;1708054;82;21153;-68
2021/07/23 03:38:06;;;;;;;;;;;;;;;12.39;100.00;99358.83;1734654;81;20151;-67
2021/07/23 03:40:32;;;;;;;;;;;;;;;12.57;100.00;99353.45;1735179;82;20098;-68
2021/07/23 03:43:01;;;;;;;;;;;;;;;12.79;100.00;99350.45;1734744;82;20121;-67
2021/07/23 03:45:29;;;;;;;;;;;;;;;12.93;100.00;99353.35;1734328;82;20405;-68
2021/07/23 03:47:57;;;;;;;;;;;;;;;13.09;100.00;99359.77;1734305;82;21829;-67
2021/07/23 03:50:24;;;;;;;;;;;;;;;13.23;100.00;99357.84;1734901;82;20087;-67
2021/07/23 03:52:56;;;;;;;;;;;;;;;13.36;100.00;99359.16;1735051;82;20445;-67
2021/07/23 03:55:41;;;;;;;;;;;;;;;13.53;100.00;99362.31;1734934;82;20156;-66
2021/07/23 03:58:09;;;;;;;;;;;;;;;13.70;100.00;99354.66;1735152;82;20098;-67
2021/07/23 04:00:38;;;;;;;;;;;;;;;13.89;100.00;99359.38;1735094;81;21794;-67
2021/07/23 04:03:05;;;;;;;;;;;;;;;14.08;100.00;99360.87;1734887;81;20126;-66
2021/07/23 04:05:32;;;;;;;;;;;;;;;14.22;100.00;99364.55;1734945;82;20191;-67
2021/07/23 04:08:03;;;;;;;;;;;;;;;14.33;100.00;99367.44;1735038;82;20106;-67
2021/07/23 04:10:32;;;;;;;;;;;;;;;14.50;100.00;99365.68;1735322;81;20082;-67
2021/07/23 04:13:00;;;;;;;;;;;;;;;14.74;100.00;99363.58;1728997;82;20570;-66
2021/07/23 04:15:27;;;;;;;;;;;;;;;14.92;100.00;99362.03;1724547;82;20102;-67
2021/07/23 04:18:11;;;;;;;;;;;;;;;15.08;100.00;99366.18;1725235;83;20158;-68
2021/07/23 04:20:54;;;;;;;;;;;;;;;15.17;100.00;99365.02;1723700;83;20167;-69
2021/07/23 04:23:20;;;;;;;;;;;;;;;15.25;100.00;99364.91;1725182;83;20166;-68
2021/07/23 04:25:48;;;;;;;;;;;;;;;15.32;100.00;99369.42;1724775;83;21189;-68
2021/07/23 04:28:15;;;;;;;;;;;;;;;15.42;100.00;99357.92;1725115;82;20462;-67
2021/07/23 04:30:43;;;;;;;;;;;;;;;15.54;100.00;99362.91;1725101;83;20090;-68
2021/07/23 04:33:17;;;;;;;;;;;;;;;15.73;100.00;99360.26;1724944;83;20161;-69
2021/07/23 04:35:47;;;;;;;;;;;;;;;15.74;100.00;99358.34;1723910;83;20167;-68
2021/07/23 04:38:14;;;;;;;;;;;;;;;15.75;100.00;99359.95;1725231;83;21161;-69
2021/07/23 04:40:43;;;;;;;;;;;;;;;15.88;100.00;99354.38;1725036;83;20098;-68
2021/07/23 04:43:11;;;;;;;;;;;;;;;16.11;100.00;99352.09;1725052;83;20102;-68
2021/07/23 04:45:40;;;;;;;;;;;;;;;16.44;100.00;99359.69;1725035;83;20118;-69
2021/07/23 04:48:09;;;;;;;;;;;;;;;16.64;100.00;99357.17;1725329;83;20110;-68
2021/07/23 04:50:54;;;;;;;;;;;;;;;16.68;100.00;99358.72;1717440;83;21163;-68
2021/07/23 04:53:39;;;;;;;;;;;;;;;16.86;100.00;99361.15;1717402;83;20165;-68
2021/07/23 04:56:11;;;;;;;;;;;;;;;16.99;100.00;99363.61;1717207;83;20089;-67
2021/07/23 04:58:40;;;;;;;;;;;;;;;17.02;100.00;99359.73;1717252;83;20101;-66
2021/07/23 05:01:08;;;;;;;;;;;;;;;17.22;100.00;99357.72;1717236;83;20261;-66
2021/07/23 05:03:39;;;;;;;;;;;;;;;17.47;100.00;99365.91;1717354;83;21813;-67
2021/07/23 05:06:06;;;;;;;;;;;;;;;17.71;100.00;99365.63;1717059;83;20085;-67
2021/07/23 05:08:42;;;;;;;;;;;;;;;17.80;100.00;99365.19;1717507;83;20105;-67
2021/07/23 05:11:10;;;;;;;;;;;;;;;17.85;100.00;99368.35;1716906;83;20171;-67
2021/07/23 05:13:40;;;;;;;;;;;;;;;17.89;100.00;99368.00;1716970;83;20104;-68
2021/07/23 05:16:08;;;;;;;;;;;;;;;17.96;100.00;99369.17;1717292;83;21152;-68
2021/07/23 05:18:37;;;;;;;;;;;;;;;18.04;100.00;99369.55;1693040;83;20145;-68
2021/07/23 05:21:04;;;;;;;;;;;;;;;18.26;100.00;99373.63;1716830;83;20180;-66
2021/07/23 05:23:34;;;;;;;;;;;;;;;18.37;100.00;99374.17;1717242;83;20240;-67
2021/07/23 05:26:01;;;;;;;;;;;;;;;18.62;100.00;99375.46;1723352;83;20122;-69
2021/07/23 05:28:28;;;;;;;;;;;;;;;18.90;100.00;99370.66;1706752;83;21808;-66
2021/07/23 05:30:59;;;;;;;;;;;;;;;19.03;100.00;99377.10;1724375;83;20496;-70
2021/07/23 05:33:26;;;;;;;;;;;;;;;19.18;100.00;99372.62;1724875;82;20071;-71
2021/07/23 05:35:52;;;;;;;;;;;;;;;19.13;100.00;99371.94;1724650;82;20123;-68
2021/07/23 05:38:19;;;;;;;;;;;;;;;19.21;100.00;99375.27;1724756;83;20154;-68
2021/07/23 05:40:45;;;;;;;;;;;;;;;19.41;100.00;99383.40;1723314;82;21217;-67
2021/07/23 05:43:13;;;;;;;;;;;;;;;19.80;100.00;99381.17;1724327;82;20115;-68
2021/07/23 05:45:40;;;;;;;;;;;;;;;20.18;100.00;99379.16;1724343;83;20103;-70
2021/07/23 05:48:09;;;;;;;;;;;;;;;20.24;100.00;99382.54;1724593;83;20070;-67
2021/07/23 05:50:35;;;;;;;;;;;;;;;20.25;100.00;99378.68;1724529;83;20618;-67
2021/07/23 05:53:02;;;;;;;;;;;;;;;20.39;100.00;99375.22;1724696;82;21157;-68
2021/07/23 05:55:30;;;;;;;;;;;;;;;20.71;100.00;99377.97;1724014;83;20087;-69
2021/07/23 05:57:58;;;;;;;;;;;;;;;21.07;100.00;99379.45;1724228;83;20167;-67
2021/07/23 06:00:26;;;;;;;;;;;;;;;21.50;100.00;99377.66;1724416;82;20206;-68
2021/07/23 06:02:59;;;;;;;;;;;;;;;21.74;93.88;99377.81;1724570;82;20159;-68
2021/07/23 06:05:26;;;;;;;;;;;;;;;21.95;93.83;99386.02;1721644;83;21174;-69
2021/07/23 06:07:52;;;;;;;;;;;;;;;22.05;89.66;99382.08;1724434;82;20356;-67
2021/07/23 06:10:20;;;;;;;;;;;;;;;22.32;91.18;99384.02;1724521;83;20180;-68
2021/07/23 06:12:46;;;;;;;;;;;;;;;22.73;85.40;99380.95;1725857;82;20551;-69
2021/07/23 06:15:13;;;;;;;;;;;;;;;22.73;82.40;99387.22;1729192;83;20107;-70
2021/07/23 06:17:42;;;;;;;;;;;;;;;22.72;82.80;99384.84;1729414;81;21777;-70
2021/07/23 06:20:12;;;;;;;;;;;;;;;22.53;83.35;99382.63;1729002;81;20138;-69
2021/07/23 06:22:41;;;;;;;;;;;;;;;22.78;78.35;99377.42;1728899;83;20165;-67
2021/07/23 06:25:09;;;;;;;;;;;;;;;22.92;67.81;99388.05;1729551;81;20094;-68
2021/07/23 06:27:39;;;;;;;;;;;;;;;22.94;66.76;99387.16;1729432;83;20206;-68
2021/07/23 06:30:12;;;;;;;;;;;;;;;23.17;64.76;99385.37;1729513;83;21147;-68
2021/07/23 06:32:39;;;;;;;;;;;;;;;23.38;63.45;99390.16;1700849;83;20454;-67
2021/07/23 06:35:11;;;;;;;;;;;;;;;23.39;61.61;99390.95;1729345;81;20414;-68
2021/07/23 06:37:39;;;;;;;;;;;;;;;23.45;61.67;99383.54;1729704;81;20082;-70
2021/07/23 06:40:09;;;;;;;;;;;;;;;23.35;59.34;99392.23;1694256;84;20119;-69
2021/07/23 06:42:36;;;;;;;;;;;;;;;23.50;57.87;99392.09;1670101;85;21975;-68
2021/07/23 06:45:05;;;;;;;;;;;;;;;23.36;59.72;99388.91;1669418;86;20150;-69
2021/07/23 06:47:33;;;;;;;;;;;;;;;23.55;61.25;99389.13;1670273;85;20132;-70
2021/07/23 06:50:00;;;;;;;;;;;;;;;23.83;58.50;99384.30;1669594;86;20738;-68
2021/07/23 06:52:27;;;;;;;;;;;;;;;24.00;58.46;99384.59;1670025;86;20173;-69
2021/07/23 06:54:55;;;;;;;;;;;;;;;23.85;55.30;99384.75;1669875;86;21139;-69
2021/07/23 06:57:34;;;;;;;;;;;;;;;23.70;53.46;99385.66;1669882;86;20127;-68
2021/07/23 06:59:59;;;;;;;;;;;;;;;23.45;53.17;99380.80;1669875;85;20095;-70
2021/07/23 07:02:26;;;;;;;;;;;;;;;23.69;53.54;99381.89;1669825;86;20199;-70
2021/07/23 07:04:52;;;;;;;;;;;;;;;23.61;54.05;99375.41;1670099;86;20616;-70
2021/07/23 07:07:19;;;;;;;;;;;;;;;23.73;53.36;99376.78;1670271;86;20770;-68
2021/07/23 07:09:45;;;;;;;;;;;;;;;24.00;52.42;99385.39;1669850;85;20127;-69
2021/07/23 07:12:13;;;;;;;;;;;;;;;24.16;51.57;99373.91;1670371;85;20437;-69
2021/07/23 07:14:41;;;;;;;;;;;;;;;24.06;52.03;99379.89;1674752;85;20168;-71
2021/07/23 07:17:07;;;;;;;;;;;;;;;24.38;52.40;99373.93;1675416;85;20172;-68
2021/07/23 07:19:34;;;;;;;;;;;;;;;24.65;50.31;99376.23;1675280;85;21182;-66
2021/07/23 07:22:01;;;;;;;;;;;;;;;24.61;50.33;99377.48;1675351;85;20128;-68
2021/07/23 07:24:27;;;;;;;;;;;;;;;24.76;49.46;99377.28;1697190;83;20134;-70
2021/07/23 07:26:54;;;;;;;;;;;;;;;24.58;51.90;99376.25;1697512;83;20183;-68
2021/07/23 07:29:21;;;;;;;;;;;;;;;24.88;51.91;99381.90;1696468;84;20661;-68
2021/07/23 07:31:47;;;;;;;;;;;;;;;25.01;48.94;99382.02;1697081;84;21168;-70
2021/07/23 07:34:14;;;;;;;;;;;;;;;25.13;50.17;99381.92;1696727;84;20162;-70
2021/07/23 07:36:41;;;;;;;;;;;;;;;24.82;48.88;99378.63;1696890;83;20616;-70
2021/07/23 07:39:09;;;;;;;;;;;;;;;24.90;49.78;99378.23;1697159;84;20364;-70
2021/07/23 07:41:36;;;;;;;;;;;;;;;24.97;46.67;99384.69;1692484;84;20735;-70
2021/07/23 07:44:05;;;;;;;;;;;;;;;25.17;46.43;99378.73;1681190;83;21128;-69
2021/07/23 07:46:35;;;;;;;;;;;;;;;25.34;45.85;99378.94;1682758;83;20221;-70
2021/07/23 07:49:03;;;;;;;;;;;;;;;25.43;45.06;99376.80;1680979;83;20285;-70
2021/07/23 07:51:30;;;;;;;;;;;;;;;25.39;44.76;99378.66;1696624;83;20182;-73
2021/07/23 07:53:57;;;;;;;;;;;;;;;25.24;45.45;99373.98;1697266;83;20150;-72
2021/07/23 07:56:23;;;;;;;;;;;;;;;25.58;46.34;99373.00;1697193;83;21146;-70
2021/07/23 07:58:51;;;;;;;;;;;;;;;25.36;45.89;99382.70;1697256;83;20467;-71
2021/07/23 08:01:17;;;;;;;;;;;;;;;25.14;46.72;99378.05;1697280;83;20204;-69
2021/07/23 08:03:44;;;;;;;;;;;;;;;24.58;46.58;99378.99;1697285;83;20154;-69
2021/07/23 08:06:20;;;;;;;;;;;;;;;24.83;48.47;99372.56;1697135;83;20148;-70
2021/07/23 08:08:40;;;;;;;;;;;;;;;25.53;45.52;99386.99;1695152;83;21172;-70
2021/07/23 08:11:08;;;;;;;;;;;;;;;25.90;45.65;99382.55;1697876;83;20130;-68
2021/07/23 08:13:35;;;;;;;;;;;;;;;26.00;43.58;99381.38;1696170;83;20139;-72
2021/07/23 08:16:04;;;;;;;;;;;;;;;25.86;44.83;99390.70;1692584;84;20355;-71
2021/07/23 08:18:31;;;;;;;;;;;;;;;25.61;42.83;99390.14;1692414;83;20135;-71
2021/07/23 08:20:59;;;;;;;;;;;;;;;25.58;43.15;99385.37;1692283;83;21791;-69
2021/07/23 08:23:26;;;;;;;;;;;;;;;25.28;43.47;99383.67;1691703;83;20197;-68
2021/07/23 08:25:53;;;;;;;;;;;;;;;25.16;44.60;99382.61;1692544;83;20150;-68
2021/07/23 08:28:20;;;;;;;;;;;;;;;25.42;46.46;99386.17;1692031;85;20162;-68
2021/07/23 08:30:51;;;;;;;;;;;;;;;25.82;44.82;99382.37;1667561;85;20114;-67
2021/07/23 08:33:31;;;;;;;;;;;;;;;26.01;42.02;99382.17;1691927;83;21394;-69
2021/07/23 08:36:01;;;;;;;;;;;;;;;25.68;43.86;99389.51;1691870;83;20127;-71
2021/07/23 08:38:27;;;;;;;;;;;;;;;25.59;43.99;99396.56;1692191;83;20150;-67
2021/07/23 08:40:54;;;;;;;;;;;;;;;25.88;44.13;99389.77;1692275;83;20107;-68
2021/07/23 08:43:20;;;;;;;;;;;;;;;26.16;45.37;99393.67;1673844;83;20791;-70
2021/07/23 08:45:47;;;;;;;;;;;;;;;26.39;41.88;99392.96;1691496;83;21116;-69
2021/07/23 08:48:15;;;;;;;;;;;;;;;26.01;42.60;99395.34;1691467;83;20151;-70
2021/07/23 08:50:42;;;;;;;;;;;;;;;25.02;45.28;99388.54;1691958;83;20151;-68
2021/07/23 08:53:09;;;;;;;;;;;;;;;24.50;47.05;99383.25;1691293;83;20178;-68
2021/07/23 08:55:37;;;;;;;;;;;;;;;24.64;47.44;99382.27;1691772;83;20199;-68
2021/07/23 08:58:10;;;;;;;;;;;;;;;25.38;44.62;99379.82;1691795;83;21854;-70
2021/07/23 09:00:38;;;;;;;;;;;;;;;26.10;44.25;99381.39;1696447;83;20596;-71
2021/07/23 09:03:10;;;;;;;;;;;;;;;26.39;43.43;99381.95;1690683;83;20193;-71
2021/07/23 09:05:41;;;;;;;;;;;;;;;25.30;44.90;99382.16;1691442;84;20551;-69
2021/07/23 09:08:14;;;;;;;;;;;;;;;24.49;47.84;99382.47;1690743;83;20567;-70
2021/07/23 09:10:41;;;;;;;;;;;;;;;24.60;46.45;99373.95;1691150;85;21129;-72
2021/07/23 09:13:09;;;;;;;;;;;;;;;24.53;47.28;99377.88;1690463;83;21121;-68
2021/07/23 09:15:40;;;;;;;;;;;;;;;24.72;46.13;99377.75;1690479;83;20147;-70
2021/07/23 09:18:19;;;;;;;;;;;;;;;25.02;45.79;99367.16;1688326;85;20510;-71
2021/07/23 09:20:54;;;;;;;;;;;;;;;25.17;45.71;99369.70;1690616;84;20159;-73
2021/07/23 09:23:33;;;;;;;;;;;;;;;25.31;46.02;99370.63;1672823;84;20183;-67
2021/07/23 09:26:04;;;;;;;;;;;;;;;24.93;45.56;99365.95;1690352;83;20453;-70
2021/07/23 09:28:33;;;;;;;;;;;;;;;25.42;47.26;99365.56;1673347;84;20233;-73
2021/07/23 09:31:01;;;;;;;;;;;;;;;25.56;43.95;99368.44;1690671;85;20193;-68
2021/07/23 09:33:31;;;;;;;;;;;;;;;25.62;43.30;99372.48;1691179;85;20183;-72
2021/07/23 09:36:05;;;;;;;;;;;;;;;26.16;43.70;99368.92;1686629;83;20708;-72
2021/07/23 09:38:35;;;;;;;;;;;;;;;25.59;43.64;99367.70;1690914;83;20222;-72
2021/07/23 09:41:09;;;;;;;;;;;;;;;24.91;44.86;99365.50;1691102;84;20126;-73
2021/07/23 09:43:45;;;;;;;;;;;;;;;24.83;45.64;99363.74;1667243;85;20245;-73
2021/07/23 09:46:21;;;;;;;;;;;;;;;25.25;45.59;99363.21;1689796;83;20543;-70
2021/07/23 09:48:48;;;;;;;;;;;;;;;25.22;44.18;99359.81;1690046;83;21152;-69
2021/07/23 09:51:19;;;;;;;;;;;;;;;24.95;44.48;99348.55;1689960;84;20119;-72
2021/07/23 09:53:52;;;;;;;;;;;;;;;25.05;45.42;99358.78;1688452;84;20171;-73
2021/07/23 09:56:24;;;;;;;;;;;;;;;25.41;44.75;99361.24;1690470;83;20539;-71
2021/07/23 09:58:59;;;;;;;;;;;;;;;25.38;43.56;99355.09;1672983;84;20167;-72
2021/07/23 10:01:30;;;;;;;;;;;;;;;25.52;45.40;99351.06;1689593;83;21136;-75
2021/07/23 10:04:04;;;;;;;;;;;;;;;25.90;45.46;99352.31;1688993;85;20570;-71
2021/07/23 10:06:53;;;;;;;;;;;;;;;25.66;42.82;99354.13;1687204;83;20142;-71
2021/07/23 10:09:25;;;;;;;;;;;;;;;25.57;45.16;99341.95;1687879;83;20904;-71
2021/07/23 10:11:58;;;;;;;;;;;;;;;25.21;45.03;99348.04;1688321;83;20241;-75
2021/07/23 10:14:27;;;;;;;;;;;;;;;25.14;46.19;99342.92;1688150;83;21126;-72
2021/07/23 10:17:11;;;;;;;;;;;;;;;25.42;43.03;99338.68;1683785;83;20139;-74
2021/07/23 10:19:42;;;;;;;;;;;;;;;26.14;43.20;99342.94;1682400;83;20187;-74
2021/07/23 10:22:13;;;;;;;;;;;;;;;26.80;41.43;99339.08;1681771;84;20250;-71
2021/07/23 10:24:41;;;;;;;;;;;;;;;27.00;41.13;99341.73;1683611;83;20454;-69
2021/07/23 10:27:10;;;;;;;;;;;;;;;26.77;42.56;99339.00;1684032;85;21214;-71
2021/07/23 10:29:49;;;;;;;;;;;;;;;25.91;42.11;99340.14;1683506;84;20190;-69
2021/07/23 10:32:34;;;;;;;;;;;;;;;25.86;44.14;99308.23;1664201;84;20176;-70
2021/07/23 10:35:17;;;;;;;;;;;;;;;26.11;45.50;99327.17;1684391;83;20644;-71
2021/07/23 10:37:47;;;;;;;;;;;;;;;26.06;43.94;99335.13;1683654;85;20195;-70
2021/07/23 10:40:15;;;;;;;;;;;;;;;25.83;45.41;99335.05;1684496;83;21117;-70
2021/07/23 10:42:47;;;;;;;;;;;;;;;26.16;41.96;99333.75;1682644;84;20202;-72
2021/07/23 10:45:20;;;;;;;;;;;;;;;26.38;42.67;99325.31;1689703;83;20251;-71
2021/07/23 10:47:49;;;;;;;;;;;;;;;26.62;41.48;99332.46;1683680;83;20237;-70
2021/07/23 10:50:27;;;;;;;;;;;;;;;26.60;41.37;99327.31;1683304;85;20485;-73
2021/07/23 10:52:56;;;;;;;;;;;;;;;26.57;41.92;99336.31;1676209;83;20812;-73
2021/07/23 10:55:25;;;;;;;;;;;;;;;26.60;42.01;99325.94;1661549;85;20333;-71
2021/07/23 10:58:09;;;;;;;;;;;;;;;26.86;42.27;99318.31;1650578;85;20190;-73
2021/07/23 11:00:58;;;;;;;;;;;;;;;27.13;41.72;99316.38;1665444;85;20261;-70
2021/07/23 11:03:42;;;;;;;;;;;;;;;27.10;41.66;99319.88;1661641;83;20260;-72
2021/07/23 11:06:22;;;;;;;;;;;;;;;26.95;41.03;99320.83;1667266;85;21157;-75
2021/07/23 11:08:53;;;;;;;;;;;;;;;26.73;40.87;99316.34;1672274;85;20202;-71
2021/07/23 11:11:25;;;;;;;;;;;;;;;26.62;39.58;99313.20;1667919;85;20210;-70
2021/07/23 11:13:51;;;;;;;;;;;;;;;26.74;40.68;99314.37;1668775;82;20168;-69
2021/07/23 11:16:26;;;;;;;;;;;;;;;26.68;40.08;99307.02;1672963;84;20233;-73
2021/07/23 11:19:00;;;;;;;;;;;;;;;26.61;40.64;99306.91;1672261;84;21058;-71
2021/07/23 11:21:37;;;;;;;;;;;;;;;26.76;39.42;99301.64;1677513;83;20137;-70
2021/07/23 11:24:12;;;;;;;;;;;;;;;26.89;40.82;99305.77;1673221;83;20209;-71
2021/07/23 11:26:56;;;;;;;;;;;;;;;27.15;40.51;99304.99;1673007;83;20195;-71
2021/07/23 11:29:33;;;;;;;;;;;;;;;27.40;39.64;99301.23;1672972;85;20286;-71
2021/07/23 11:32:12;;;;;;;;;;;;;;;27.65;40.38;99300.17;1674893;85;20567;-73
2021/07/23 11:34:41;;;;;;;;;;;;;;;27.65;39.62;99299.39;1649946;85;20153;-71
2021/07/23 11:37:13;;;;;;;;;;;;;;;26.88;39.79;99298.69;1642874;83;20146;-72
2021/07/23 11:39:55;;;;;;;;;;;;;;;26.40;41.82;99299.61;1671182;85;20252;-68
2021/07/23 11:42:23;;;;;;;;;;;;;;;26.61;41.39;99297.86;1659897;83;20544;-71
2021/07/23 11:45:04;;;;;;;;;;;;;;;26.52;40.16;99288.42;1657524;85;21204;-72
2021/07/23 11:47:34;;;;;;;;;;;;;;;26.99;40.46;99285.06;1688972;83;20560;-71
2021/07/23 11:50:09;;;;;;;;;;;;;;;26.92;40.50;99299.52;1689411;83;20162;-71
2021/07/23 11:52:36;;;;;;;;;;;;;;;26.49;41.79;99291.92;1664796;85;20187;-72
2021/07/23 11:55:07;;;;;;;;;;;;;;;26.69;42.29;99286.58;1689745;83;20150;-72
2021/07/23 11:57:41;;;;;;;;;;;;;;;26.71;41.86;99285.63;1689632;83;21798;-72
2021/07/23 12:00:23;;;;;;;;;;;;;;;26.81;40.19;99282.05;1689321;83;20130;-72
2021/07/23 12:02:52;;;;;;;;;;;;;;;27.01;40.39;99284.91;1689545;83;20493;-71
2021/07/23 12:05:25;;;;;;;;;;;;;;;26.94;40.53;99280.08;1689933;83;20139;-71
2021/07/23 12:08:01;;;;;;;;;;;;;;;26.57;40.17;99277.14;1688486;83;20209;-70
2021/07/23 12:10:43;;;;;;;;;;;;;;;26.77;40.74;99286.70;1689787;83;21140;-70
2021/07/23 12:13:20;;;;;;;;;;;;;;;27.29;40.24;99282.38;1689605;83;20454;-72
2021/07/23 12:15:50;;;;;;;;;;;;;;;27.62;39.67;99287.15;1689285;82;20182;-71
2021/07/23 12:18:17;;;;;;;;;;;;;;;27.05;39.07;99287.14;1689833;84;20498;-72
2021/07/23 12:20:43;;;;;;;;;;;;;;;27.13;38.88;99271.51;1689364;83;20131;-73
2021/07/23 12:23:10;;;;;;;;;;;;;;;27.08;38.66;99277.34;1690455;83;21152;-72
2021/07/23 12:25:52;;;;;;;;;;;;;;;27.10;39.23;99277.77;1691124;84;20206;-69
2021/07/23 12:28:21;;;;;;;;;;;;;;;27.31;39.14;99274.53;1691199;83;20149;-72
2021/07/23 12:31:06;;;;;;;;;;;;;;;27.35;39.45;99275.39;1692369;83;20192;-72
2021/07/23 12:33:30;;;;;;;;;;;;;;;27.70;40.74;99269.52;1667403;83;20424;-73
2021/07/23 12:36:01;;;;;;;;;;;;;;;28.04;38.08;99270.91;1692882;83;20511;-73
2021/07/23 12:38:31;;;;;;;;;;;;;;;27.91;36.92;99277.87;1688467;83;20090;-70
2021/07/23 12:41:02;;;;;;;;;;;;;;;27.44;38.53;99271.77;1690924;83;20145;-72
2021/07/23 12:43:33;;;;;;;;;;;;;;;27.20;40.06;99268.10;1692166;83;20137;-74
2021/07/23 12:46:05;;;;;;;;;;;;;;;26.58;40.43;99271.05;1668724;83;20182;-73
2021/07/23 12:48:35;;;;;;;;;;;;;;;26.36;39.68;99265.73;1693379;84;21167;-74
2021/07/23 12:51:11;;;;;;;;;;;;;;;26.73;39.39;99276.43;1692631;83;20237;-72
2021/07/23 12:53:44;;;;;;;;;;;;;;;27.22;39.13;99267.12;1693009;83;20513;-71
2021/07/23 12:56:11;;;;;;;;;;;;;;;27.40;37.91;99267.38;1692934;83;20183;-69